Time;durP1;ratioP1;P1;durP2;ratioP2;P2;SDS_P1;SDS_P2;PMS_P1;PMS_P2;Temp;Humidity;BMP_temperature;BMP_pressure;BME280_temperature;BME280_humidity;BME280_pressure;Samples;Min_cycle;Max_cycle;Signal;HPM_P1;HPM_P2
2021/01/12 00:00:57;;;;;;;;;;;11.40;69.00;;;;;;2089592;28;714;-57
2021/01/12 00:02:17;;;;;;;;;;;11.40;69.00;;;;;;2089405;28;730;-56
2021/01/12 00:03:37;;;;;;;;;;;11.40;68.90;;;;;;2095855;28;1339;-57
2021/01/12 00:04:56;;;;;;;;;;;11.40;69.70;;;;;;2095252;28;730;-54
2021/01/12 00:06:15;;;;;;;;;;;11.40;69.70;;;;;;2097906;28;699;-56
2021/01/12 00:07:35;;;;;;;;;;;11.40;69.20;;;;;;2097650;28;754;-56
2021/01/12 00:08:54;;;;;;;;;;;11.40;69.20;;;;;;2097829;28;749;-54
2021/01/12 00:10:13;;;;;;;;;;;11.40;69.30;;;;;;2094186;28;1431;-54
2021/01/12 00:11:32;;;;;;;;;;;11.40;69.20;;;;;;2098813;28;872;-54
2021/01/12 00:12:52;;;;;;;;;;;11.40;69.10;;;;;;2089838;28;1035;-54
2021/01/12 00:15:49;;;;;;;;;;;11.30;69.20;;;;;;2082072;28;784;-56
2021/01/12 00:17:08;;;;;;;;;;;11.30;69.30;;;;;;2087514;28;743;-56
2021/01/12 00:18:27;;;;;;;;;;;11.30;69.00;;;;;;2091076;28;713;-53
2021/01/12 00:19:46;;;;;;;;;;;11.30;69.90;;;;;;2081794;28;1436;-56
2021/01/12 00:21:05;;;;;;;;;;;11.40;70.00;;;;;;2081928;28;724;-55
2021/01/12 00:22:25;;;;;;;;;;;11.30;69.20;;;;;;2087534;28;626;-56
2021/01/12 00:23:44;;;;;;;;;;;11.30;69.20;;;;;;2082024;28;730;-53
2021/01/12 00:25:04;;;;;;;;;;;11.30;69.10;;;;;;2086537;28;721;-56
2021/01/12 00:26:23;;;;;;;;;;;11.30;69.20;;;;;;2082211;28;816;-57
2021/01/12 00:27:42;;;;;;;;;;;11.30;69.30;;;;;;2087557;28;677;-59
2021/01/12 00:29:01;;;;;;;;;;;11.30;69.40;;;;;;2090970;28;728;-57
2021/01/12 00:30:21;;;;;;;;;;;11.30;69.40;;;;;;2082120;28;1469;-57
2021/01/12 00:31:40;;;;;;;;;;;11.30;69.40;;;;;;2078835;28;713;-56
2021/01/12 00:33:00;;;;;;;;;;;11.30;69.40;;;;;;2095570;28;733;-54
2021/01/12 00:34:19;;;;;;;;;;;11.30;69.40;;;;;;2093824;28;1906;-53
2021/01/12 00:35:38;;;;;;;;;;;11.30;69.50;;;;;;2081476;28;720;-55
2021/01/12 00:36:57;;;;;;;;;;;11.30;69.60;;;;;;2087318;28;713;-54
2021/01/12 00:38:16;;;;;;;;;;;11.30;70.40;;;;;;2090959;28;729;-54
2021/01/12 00:39:36;;;;;;;;;;;11.30;69.70;;;;;;2090865;28;1390;-56
2021/01/12 00:40:55;;;;;;;;;;;11.30;69.70;;;;;;2082181;28;1162;-52
2021/01/12 00:42:14;;;;;;;;;;;11.30;69.70;;;;;;2088539;28;1201;-54
2021/01/12 00:43:33;;;;;;;;;;;11.30;69.80;;;;;;2099296;28;966;-55
2021/01/12 00:44:52;;;;;;;;;;;11.30;69.80;;;;;;2098248;28;721;-52
2021/01/12 00:46:12;;;;;;;;;;;11.30;69.80;;;;;;2099260;28;746;-53
2021/01/12 00:47:32;;;;;;;;;;;11.30;69.80;;;;;;2099066;28;710;-54
2021/01/12 00:48:51;;;;;;;;;;;11.30;69.80;;;;;;2089972;28;716;-56
2021/01/12 00:50:10;;;;;;;;;;;11.30;69.70;;;;;;2095486;28;1455;-54
2021/01/12 00:51:35;;;;;;;;;;;11.20;69.80;;;;;;2090235;28;1017;-56
2021/01/12 00:52:54;;;;;;;;;;;11.20;69.70;;;;;;2104169;28;746;-52
2021/01/12 00:54:15;;;;;;;;;;;11.20;69.60;;;;;;2102184;28;727;-54
2021/01/12 00:55:34;;;;;;;;;;;11.20;69.70;;;;;;2077816;28;1628;-53
2021/01/12 00:56:53;;;;;;;;;;;11.20;70.00;;;;;;2083691;28;743;-53
2021/01/12 00:58:12;;;;;;;;;;;11.20;69.80;;;;;;2090925;28;674;-56
2021/01/12 00:59:31;;;;;;;;;;;11.20;69.90;;;;;;2090396;28;740;-54
2021/01/12 01:00:51;;;;;;;;;;;11.20;69.80;;;;;;2090317;28;743;-56
2021/01/12 01:02:10;;;;;;;;;;;11.20;70.00;;;;;;2090802;28;664;-58
2021/01/12 01:03:29;;;;;;;;;;;11.20;69.80;;;;;;2081727;28;764;-57
2021/01/12 01:04:48;;;;;;;;;;;11.20;69.80;;;;;;2077752;28;641;-55
2021/01/12 01:06:07;;;;;;;;;;;11.20;70.60;;;;;;2094958;28;673;-57
2021/01/12 01:07:26;;;;;;;;;;;11.20;70.70;;;;;;2084779;28;731;-55
2021/01/12 01:08:46;;;;;;;;;;;11.20;70.10;;;;;;2087058;28;743;-54
2021/01/12 01:10:05;;;;;;;;;;;11.20;69.90;;;;;;2090436;28;1388;-53
2021/01/12 01:11:25;;;;;;;;;;;11.20;69.90;;;;;;2098723;28;935;-55
2021/01/12 01:12:45;;;;;;;;;;;11.20;70.00;;;;;;2084402;28;1098;-57
2021/01/12 01:14:04;;;;;;;;;;;11.20;70.10;;;;;;2095542;28;792;-55
2021/01/12 01:15:23;;;;;;;;;;;11.20;70.20;;;;;;2089203;28;728;-53
2021/01/12 01:16:43;;;;;;;;;;;11.20;70.20;;;;;;2095484;28;735;-56
2021/01/12 01:18:02;;;;;;;;;;;11.20;70.20;;;;;;2098091;28;732;-56
2021/01/12 01:19:22;;;;;;;;;;;11.20;70.20;;;;;;2098725;28;741;-55
2021/01/12 01:20:40;;;;;;;;;;;11.20;70.30;;;;;;2089943;28;761;-56
2021/01/12 01:22:00;;;;;;;;;;;11.20;70.30;;;;;;2103204;28;692;-54
2021/01/12 01:23:19;;;;;;;;;;;11.20;70.80;;;;;;2100746;28;787;-54
2021/01/12 01:24:38;;;;;;;;;;;11.20;71.00;;;;;;2089633;28;736;-55
2021/01/12 01:25:57;;;;;;;;;;;11.20;70.30;;;;;;2095199;28;681;-55
2021/01/12 01:27:16;;;;;;;;;;;11.20;70.20;;;;;;2098371;28;731;-55
2021/01/12 01:28:36;;;;;;;;;;;11.20;70.30;;;;;;2098530;28;714;-55
2021/01/12 01:29:55;;;;;;;;;;;11.10;70.10;;;;;;2098418;28;1407;-54
2021/01/12 01:31:14;;;;;;;;;;;11.20;70.20;;;;;;2089778;28;721;-56
2021/01/12 01:32:33;;;;;;;;;;;11.20;70.30;;;;;;2089760;28;693;-53
2021/01/12 01:33:53;;;;;;;;;;;11.10;70.30;;;;;;2095327;28;718;-55
2021/01/12 01:35:12;;;;;;;;;;;11.20;70.40;;;;;;2097533;28;1898;-58
2021/01/12 01:36:31;;;;;;;;;;;11.20;70.40;;;;;;2098734;28;749;-55
2021/01/12 01:37:50;;;;;;;;;;;11.10;70.30;;;;;;2089871;28;775;-56
2021/01/12 01:39:10;;;;;;;;;;;11.10;70.30;;;;;;2095201;28;733;-55
2021/01/12 01:40:29;;;;;;;;;;;11.10;70.30;;;;;;2084413;28;1354;-55
2021/01/12 01:41:48;;;;;;;;;;;11.10;71.20;;;;;;2099395;28;999;-55
2021/01/12 01:43:13;;;;;;;;;;;11.10;71.20;;;;;;2099028;28;983;-54
2021/01/12 01:44:32;;;;;;;;;;;11.10;70.30;;;;;;2098584;28;721;-57
2021/01/12 01:45:52;;;;;;;;;;;11.10;70.50;;;;;;2098655;28;724;-55
2021/01/12 01:47:11;;;;;;;;;;;11.10;70.40;;;;;;2089334;28;732;-57
2021/01/12 01:48:30;;;;;;;;;;;11.10;70.30;;;;;;2095190;28;609;-54
2021/01/12 01:49:50;;;;;;;;;;;11.10;70.60;;;;;;2089549;28;1359;-54
2021/01/12 01:51:09;;;;;;;;;;;11.10;70.50;;;;;;2102980;28;783;-56
2021/01/12 01:52:28;;;;;;;;;;;11.10;71.30;;;;;;2092889;28;726;-57
2021/01/12 01:53:47;;;;;;;;;;;11.10;71.20;;;;;;2094932;28;1017;-54
2021/01/12 01:55:06;;;;;;;;;;;11.10;71.40;;;;;;2077086;28;1910;-55
2021/01/12 01:56:26;;;;;;;;;;;11.10;70.60;;;;;;2086451;28;594;-54
2021/01/12 01:57:45;;;;;;;;;;;11.10;70.60;;;;;;2089566;28;722;-54
2021/01/12 01:59:05;;;;;;;;;;;11.10;70.70;;;;;;2095306;28;724;-56
2021/01/12 02:00:24;;;;;;;;;;;11.10;70.70;;;;;;2098537;28;1395;-53
2021/01/12 02:01:43;;;;;;;;;;;11.10;70.90;;;;;;2098398;28;771;-56
2021/01/12 02:03:11;;;;;;;;;;;11.10;70.70;;;;;;2098408;28;708;-56
2021/01/12 02:04:31;;;;;;;;;;;11.10;70.60;;;;;;2081376;28;792;-54
2021/01/12 02:05:54;;;;;;;;;;;11.10;70.80;;;;;;2094712;28;775;-54
2021/01/12 02:07:13;;;;;;;;;;;11.00;70.50;;;;;;2092164;28;729;-56
2021/01/12 02:08:36;;;;;;;;;;;11.10;70.70;;;;;;2102986;28;695;-55
2021/01/12 02:09:55;;;;;;;;;;;11.10;70.60;;;;;;2090909;28;1397;-56
2021/01/12 02:11:14;;;;;;;;;;;11.00;71.50;;;;;;2101551;28;1120;-54
2021/01/12 02:12:34;;;;;;;;;;;11.10;70.80;;;;;;2078554;28;1064;-55
2021/01/12 02:13:55;;;;;;;;;;;11.10;71.00;;;;;;2094870;28;776;-55
2021/01/12 02:15:16;;;;;;;;;;;11.00;70.80;;;;;;2080370;28;1902;-52
2021/01/12 02:16:36;;;;;;;;;;;11.00;71.00;;;;;;2083391;28;1414;-54
2021/01/12 02:17:55;;;;;;;;;;;11.10;70.70;;;;;;2080982;28;1169;-56
2021/01/12 02:19:17;;;;;;;;;;;11.00;70.80;;;;;;2094427;28;1076;-53
2021/01/12 02:20:36;;;;;;;;;;;11.00;70.50;;;;;;2084034;28;776;-54
2021/01/12 02:21:58;;;;;;;;;;;11.10;71.20;;;;;;2086414;28;700;-57
2021/01/12 02:23:18;;;;;;;;;;;11.10;70.50;;;;;;2073021;28;722;-58
2021/01/12 02:24:37;;;;;;;;;;;11.10;70.50;;;;;;2083934;28;800;-57
2021/01/12 02:25:56;;;;;;;;;;;11.10;70.30;;;;;;2084383;28;736;-54
2021/01/12 02:27:19;;;;;;;;;;;11.10;70.20;;;;;;2077599;28;740;-56
2021/01/12 02:28:38;;;;;;;;;;;11.20;70.10;;;;;;2087018;28;748;-57
2021/01/12 02:29:57;;;;;;;;;;;11.20;69.80;;;;;;2090029;28;1458;-54
2021/01/12 02:31:16;;;;;;;;;;;11.30;70.20;;;;;;2081038;28;733;-53
2021/01/12 02:32:35;;;;;;;;;;;11.30;69.70;;;;;;2086449;28;680;-56
2021/01/12 02:33:54;;;;;;;;;;;11.40;68.60;;;;;;2080885;28;731;-54
2021/01/12 02:35:14;;;;;;;;;;;11.50;68.20;;;;;;2085171;28;1907;-53
2021/01/12 02:36:33;;;;;;;;;;;11.50;67.80;;;;;;2081171;28;760;-55
2021/01/12 02:37:54;;;;;;;;;;;11.50;67.30;;;;;;2094421;28;728;-53
2021/01/12 02:39:13;;;;;;;;;;;11.60;67.00;;;;;;2084129;28;1088;-53
2021/01/12 02:40:32;;;;;;;;;;;11.70;66.70;;;;;;2087239;28;1380;-55
2021/01/12 02:41:51;;;;;;;;;;;11.70;66.10;;;;;;2077375;28;1195;-53
2021/01/12 02:43:10;;;;;;;;;;;11.80;65.80;;;;;;2097421;28;1135;-57
2021/01/12 02:44:30;;;;;;;;;;;11.90;65.30;;;;;;2101459;28;719;-55
2021/01/12 02:45:49;;;;;;;;;;;11.90;64.80;;;;;;2098097;28;713;-54
2021/01/12 02:47:08;;;;;;;;;;;12.00;64.60;;;;;;2098249;28;789;-55
2021/01/12 02:48:27;;;;;;;;;;;12.00;64.00;;;;;;2098277;28;692;-55
2021/01/12 02:49:46;;;;;;;;;;;12.10;64.40;;;;;;2086756;28;1381;-55
2021/01/12 02:51:05;;;;;;;;;;;12.20;64.10;;;;;;2094514;28;718;-55
2021/01/12 02:52:25;;;;;;;;;;;12.20;62.80;;;;;;2089443;28;694;-53
2021/01/12 02:53:44;;;;;;;;;;;12.30;62.60;;;;;;2089112;28;762;-56
2021/01/12 02:55:03;;;;;;;;;;;12.40;62.30;;;;;;2093809;28;1906;-56
2021/01/12 02:56:23;;;;;;;;;;;12.40;62.00;;;;;;2089157;28;723;-56
2021/01/12 02:57:42;;;;;;;;;;;12.50;61.70;;;;;;2102134;28;759;-57
2021/01/12 02:59:01;;;;;;;;;;;12.50;61.40;;;;;;2084223;28;681;-57
2021/01/12 03:00:21;;;;;;;;;;;12.60;61.20;;;;;;2091223;28;1486;-55
2021/01/12 03:01:40;;;;;;;;;;;12.70;60.80;;;;;;2097856;28;705;-60
2021/01/12 03:02:59;;;;;;;;;;;12.70;60.40;;;;;;2097384;28;690;-57
2021/01/12 03:04:18;;;;;;;;;;;12.80;60.10;;;;;;2088566;28;729;-60
2021/01/12 03:05:37;;;;;;;;;;;12.80;59.80;;;;;;2093059;28;706;-55
2021/01/12 03:06:57;;;;;;;;;;;12.80;59.70;;;;;;2088878;28;746;-57
2021/01/12 03:08:16;;;;;;;;;;;12.90;60.20;;;;;;2093994;28;780;-56
2021/01/12 03:09:35;;;;;;;;;;;12.90;60.20;;;;;;2083212;28;1992;-58
2021/01/12 03:10:54;;;;;;;;;;;12.90;59.50;;;;;;2084128;28;968;-58
2021/01/12 03:12:14;;;;;;;;;;;12.90;59.50;;;;;;2081564;28;1052;-57
2021/01/12 03:13:33;;;;;;;;;;;12.90;59.60;;;;;;2081468;28;1000;-56
2021/01/12 03:14:52;;;;;;;;;;;12.80;59.60;;;;;;2079625;28;1910;-58
2021/01/12 03:16:12;;;;;;;;;;;12.80;59.70;;;;;;2094015;28;1140;-54
2021/01/12 03:17:31;;;;;;;;;;;12.80;59.70;;;;;;2092027;28;842;-55
2021/01/12 03:18:50;;;;;;;;;;;12.80;59.90;;;;;;2089481;28;705;-58
2021/01/12 03:20:10;;;;;;;;;;;12.80;59.90;;;;;;2089054;28;1471;-54
2021/01/12 03:21:29;;;;;;;;;;;12.80;60.10;;;;;;2089384;28;998;-55
2021/01/12 03:22:48;;;;;;;;;;;12.80;60.20;;;;;;2089461;28;714;-56
2021/01/12 03:24:08;;;;;;;;;;;12.70;61.00;;;;;;2089238;28;725;-56
2021/01/12 03:25:27;;;;;;;;;;;12.70;60.50;;;;;;2088327;28;760;-58
2021/01/12 03:26:46;;;;;;;;;;;12.70;60.70;;;;;;2089455;28;854;-55
2021/01/12 03:28:06;;;;;;;;;;;12.70;60.90;;;;;;2080455;28;749;-54
2021/01/12 03:29:26;;;;;;;;;;;12.70;61.00;;;;;;2086010;28;784;-56
2021/01/12 03:30:45;;;;;;;;;;;12.70;61.10;;;;;;2089282;28;768;-57
2021/01/12 03:32:04;;;;;;;;;;;12.60;61.20;;;;;;2089132;28;833;-56
2021/01/12 03:33:24;;;;;;;;;;;12.60;61.40;;;;;;2080407;28;764;-53
2021/01/12 03:34:43;;;;;;;;;;;12.60;61.60;;;;;;2093439;28;1992;-57
2021/01/12 03:36:02;;;;;;;;;;;12.60;61.70;;;;;;2092217;28;716;-56
2021/01/12 03:37:21;;;;;;;;;;;12.60;61.90;;;;;;2088896;28;720;-55
2021/01/12 03:38:40;;;;;;;;;;;12.50;61.90;;;;;;2080306;28;785;-56
2021/01/12 03:40:00;;;;;;;;;;;12.50;62.00;;;;;;2076788;28;1456;-57
2021/01/12 03:41:19;;;;;;;;;;;12.50;62.90;;;;;;2093117;28;1075;-58
2021/01/12 03:42:38;;;;;;;;;;;12.50;63.10;;;;;;2073319;28;1088;-54
2021/01/12 03:43:57;;;;;;;;;;;12.50;63.30;;;;;;2098612;28;746;-55
2021/01/12 03:45:16;;;;;;;;;;;12.50;62.70;;;;;;2091153;28;708;-54
2021/01/12 03:46:36;;;;;;;;;;;12.40;62.70;;;;;;2089140;28;713;-56
2021/01/12 03:47:55;;;;;;;;;;;12.40;62.90;;;;;;2095508;28;719;-56
2021/01/12 03:49:14;;;;;;;;;;;12.40;63.10;;;;;;2098992;28;1035;-55
2021/01/12 03:50:33;;;;;;;;;;;12.40;63.10;;;;;;2098612;28;1381;-56
2021/01/12 03:51:52;;;;;;;;;;;12.40;63.40;;;;;;2098817;28;758;-55
2021/01/12 03:53:13;;;;;;;;;;;12.40;63.50;;;;;;2098767;28;697;-57
2021/01/12 03:54:32;;;;;;;;;;;12.40;63.60;;;;;;2088310;28;1959;-55
2021/01/12 03:55:52;;;;;;;;;;;12.30;63.60;;;;;;2087448;28;801;-55
2021/01/12 03:57:11;;;;;;;;;;;12.30;63.70;;;;;;2090517;28;750;-55
2021/01/12 03:58:30;;;;;;;;;;;12.30;64.60;;;;;;2090852;28;752;-56
2021/01/12 03:59:49;;;;;;;;;;;12.30;64.70;;;;;;2081872;28;1385;-55
2021/01/12 04:01:08;;;;;;;;;;;12.30;64.20;;;;;;2081643;28;758;-54
2021/01/12 04:02:27;;;;;;;;;;;12.30;64.30;;;;;;2087022;28;1363;-55
2021/01/12 04:03:47;;;;;;;;;;;12.30;64.40;;;;;;2097800;28;1165;-54
2021/01/12 04:05:06;;;;;;;;;;;12.20;64.40;;;;;;2095082;28;1237;-55
2021/01/12 04:06:26;;;;;;;;;;;12.20;64.60;;;;;;2097968;28;1445;-54
2021/01/12 04:07:45;;;;;;;;;;;12.20;64.70;;;;;;2093194;28;1435;-58
2021/01/12 04:09:04;;;;;;;;;;;12.20;64.70;;;;;;2098313;28;1340;-54
2021/01/12 04:10:23;;;;;;;;;;;12.20;64.80;;;;;;2088078;28;1553;-57
2021/01/12 04:11:44;;;;;;;;;;;12.20;65.00;;;;;;2102353;28;1093;-57
2021/01/12 04:13:03;;;;;;;;;;;12.20;65.20;;;;;;2101286;28;1318;-58
2021/01/12 04:14:22;;;;;;;;;;;12.10;65.10;;;;;;2098520;28;1118;-54
2021/01/12 04:15:42;;;;;;;;;;;12.10;65.30;;;;;;2094847;28;1921;-60
2021/01/12 04:17:01;;;;;;;;;;;12.20;66.30;;;;;;2097990;28;1145;-55
2021/01/12 04:18:20;;;;;;;;;;;12.10;65.50;;;;;;2104351;28;1396;-57
2021/01/12 04:19:39;;;;;;;;;;;12.10;65.60;;;;;;2099368;28;1439;-55
2021/01/12 04:20:58;;;;;;;;;;;12.10;65.70;;;;;;2087520;28;1137;-58
2021/01/12 04:22:18;;;;;;;;;;;12.10;65.80;;;;;;2090353;28;1138;-54
2021/01/12 04:23:37;;;;;;;;;;;12.10;65.90;;;;;;2097009;28;1250;-55
2021/01/12 04:24:56;;;;;;;;;;;12.10;66.00;;;;;;2094396;28;1379;-54
2021/01/12 04:26:15;;;;;;;;;;;12.10;66.00;;;;;;2084814;28;1393;-53
2021/01/12 04:27:34;;;;;;;;;;;12.00;66.10;;;;;;2085349;28;1626;-52
2021/01/12 04:28:54;;;;;;;;;;;12.10;66.20;;;;;;2095264;28;1284;-56
2021/01/12 04:30:13;;;;;;;;;;;12.10;66.40;;;;;;2095861;28;1479;-58
2021/01/12 04:31:32;;;;;;;;;;;12.00;66.30;;;;;;2087035;28;1149;-54
2021/01/12 04:32:51;;;;;;;;;;;12.00;66.40;;;;;;2085929;28;1287;-54
2021/01/12 04:34:10;;;;;;;;;;;12.00;66.50;;;;;;2092011;28;957;-57
2021/01/12 04:35:29;;;;;;;;;;;12.00;67.30;;;;;;2091752;28;1329;-61
2021/01/12 04:36:48;;;;;;;;;;;12.00;66.60;;;;;;2084118;28;1424;-57
2021/01/12 04:38:08;;;;;;;;;;;12.00;66.70;;;;;;2085347;28;1301;-56
2021/01/12 04:39:27;;;;;;;;;;;12.00;66.70;;;;;;2089650;28;1299;-56
2021/01/12 04:40:46;;;;;;;;;;;12.00;66.70;;;;;;2098218;28;1515;-55
2021/01/12 04:42:05;;;;;;;;;;;12.00;67.00;;;;;;2084911;28;1241;-56
2021/01/12 04:43:25;;;;;;;;;;;12.00;67.00;;;;;;2085491;28;1451;-56
2021/01/12 04:44:44;;;;;;;;;;;11.90;66.90;;;;;;2094059;28;1431;-56
2021/01/12 04:46:04;;;;;;;;;;;11.90;66.90;;;;;;2093146;28;1327;-56
2021/01/12 04:47:23;;;;;;;;;;;11.90;67.00;;;;;;2105741;28;1280;-54
2021/01/12 04:48:43;;;;;;;;;;;11.90;67.10;;;;;;2097923;28;1360;-59
2021/01/12 04:50:03;;;;;;;;;;;11.90;67.10;;;;;;2098144;28;1435;-57
2021/01/12 04:51:23;;;;;;;;;;;11.90;67.20;;;;;;2097002;28;1154;-54
2021/01/12 04:52:45;;;;;;;;;;;11.90;67.20;;;;;;2098325;28;1253;-57
2021/01/12 04:54:04;;;;;;;;;;;11.90;68.00;;;;;;2106077;28;1119;-56
2021/01/12 04:55:23;;;;;;;;;;;11.90;67.30;;;;;;2100167;28;1906;-54
2021/01/12 04:56:43;;;;;;;;;;;11.90;67.50;;;;;;2091476;28;1295;-53
2021/01/12 04:58:02;;;;;;;;;;;11.90;67.50;;;;;;2094984;28;1469;-57
2021/01/12 04:59:27;;;;;;;;;;;11.90;67.70;;;;;;2082315;28;1282;-57
2021/01/12 05:00:46;;;;;;;;;;;11.80;67.70;;;;;;2079137;28;718;-57
2021/01/12 05:02:06;;;;;;;;;;;11.90;69.30;;;;;;2082137;28;752;-54
2021/01/12 05:03:25;;;;;;;;;;;11.90;70.70;;;;;;2073319;28;769;-59
2021/01/12 05:04:44;;;;;;;;;;;11.90;71.60;;;;;;2069384;28;780;-57
2021/01/12 05:06:03;;;;;;;;;;;11.90;71.80;;;;;;2073204;28;715;-56
2021/01/12 05:07:23;;;;;;;;;;;11.90;72.20;;;;;;2078019;28;733;-55
2021/01/12 05:08:45;;;;;;;;;;;11.90;72.60;;;;;;2078967;28;1447;-55
2021/01/12 05:10:10;;;;;;;;;;;11.90;72.00;;;;;;2088233;28;1534;-59
2021/01/12 05:11:33;;;;;;;;;;;11.90;71.70;;;;;;2078691;28;1296;-56
2021/01/12 05:12:52;;;;;;;;;;;11.90;71.60;;;;;;2078798;28;1414;-54
2021/01/12 05:14:11;;;;;;;;;;;11.90;71.50;;;;;;2087696;28;1175;-54
2021/01/12 05:15:31;;;;;;;;;;;11.90;71.60;;;;;;2080170;28;1970;-57
2021/01/12 05:16:50;;;;;;;;;;;11.80;71.60;;;;;;2086170;28;1441;-54
2021/01/12 05:18:10;;;;;;;;;;;11.80;71.50;;;;;;2089726;28;974;-53
2021/01/12 05:19:30;;;;;;;;;;;11.80;71.70;;;;;;2087794;28;1197;-54
2021/01/12 05:20:50;;;;;;;;;;;11.80;71.50;;;;;;2080828;28;1435;-55
2021/01/12 05:22:09;;;;;;;;;;;11.80;71.60;;;;;;2080537;28;1425;-57
2021/01/12 05:23:29;;;;;;;;;;;11.80;71.60;;;;;;2075673;28;1341;-56
2021/01/12 05:24:49;;;;;;;;;;;11.80;71.60;;;;;;2086579;28;1245;-53
2021/01/12 05:26:08;;;;;;;;;;;11.80;71.70;;;;;;2089726;28;1300;-54
2021/01/12 05:27:29;;;;;;;;;;;11.80;71.70;;;;;;2072466;28;897;-56
2021/01/12 05:28:48;;;;;;;;;;;11.70;71.50;;;;;;2073539;28;1084;-57
2021/01/12 05:30:09;;;;;;;;;;;11.70;71.50;;;;;;2076542;28;1510;-55
2021/01/12 05:31:28;;;;;;;;;;;11.70;71.60;;;;;;2083845;28;1353;-55
2021/01/12 05:32:47;;;;;;;;;;;11.70;72.30;;;;;;2090769;28;1414;-55
2021/01/12 05:34:07;;;;;;;;;;;11.70;72.50;;;;;;2081083;28;1355;-56
2021/01/12 05:35:29;;;;;;;;;;;11.70;71.70;;;;;;2076843;28;1965;-55
2021/01/12 05:36:49;;;;;;;;;;;11.70;71.70;;;;;;2093121;28;1143;-55
2021/01/12 05:38:09;;;;;;;;;;;11.70;71.80;;;;;;2094159;28;1161;-57
2021/01/12 05:39:28;;;;;;;;;;;11.70;71.80;;;;;;2087310;28;1142;-54
2021/01/12 05:40:52;;;;;;;;;;;11.70;71.70;;;;;;2089436;28;1234;-54
2021/01/12 05:42:11;;;;;;;;;;;11.70;71.80;;;;;;2072688;28;1361;-55
2021/01/12 05:43:31;;;;;;;;;;;11.70;71.90;;;;;;2077345;28;1289;-57
2021/01/12 05:44:50;;;;;;;;;;;11.70;71.90;;;;;;2079135;28;1286;-55
2021/01/12 05:46:10;;;;;;;;;;;11.70;71.90;;;;;;2086038;28;1335;-56
2021/01/12 05:47:29;;;;;;;;;;;11.60;71.80;;;;;;2089456;28;1377;-55
2021/01/12 05:48:48;;;;;;;;;;;11.60;71.90;;;;;;2092753;28;1185;-54
2021/01/12 05:50:07;;;;;;;;;;;11.60;71.70;;;;;;2088352;28;1436;-56
2021/01/12 05:51:26;;;;;;;;;;;11.60;71.80;;;;;;2080571;28;1351;-55
2021/01/12 05:52:49;;;;;;;;;;;11.60;71.70;;;;;;2095524;28;1690;-57
2021/01/12 05:54:09;;;;;;;;;;;11.60;71.90;;;;;;2082422;28;1290;-54
2021/01/12 05:55:28;;;;;;;;;;;11.60;71.80;;;;;;2082719;28;1898;-54
2021/01/12 05:56:48;;;;;;;;;;;11.60;72.00;;;;;;2079413;28;1300;-57
2021/01/12 05:58:11;;;;;;;;;;;11.60;71.90;;;;;;2073535;28;1353;-55
2021/01/12 05:59:31;;;;;;;;;;;11.60;72.10;;;;;;2079422;28;1267;-55
2021/01/12 06:00:50;;;;;;;;;;;11.60;72.00;;;;;;2076270;28;1273;-55
2021/01/12 06:02:09;;;;;;;;;;;11.60;72.00;;;;;;2079767;28;1416;-55
2021/01/12 06:03:28;;;;;;;;;;;11.60;71.90;;;;;;2077471;28;1449;-54
2021/01/12 06:04:48;;;;;;;;;;;11.60;72.00;;;;;;2075271;28;1375;-55
2021/01/12 06:06:07;;;;;;;;;;;11.60;72.70;;;;;;2078822;28;1308;-54
2021/01/12 06:07:26;;;;;;;;;;;11.60;72.90;;;;;;2085705;28;871;-52
2021/01/12 06:08:48;;;;;;;;;;;11.60;72.10;;;;;;2088843;28;1101;-57
2021/01/12 06:10:07;;;;;;;;;;;11.60;72.10;;;;;;2090351;28;1491;-54
2021/01/12 06:11:26;;;;;;;;;;;11.60;72.20;;;;;;2089674;28;1282;-53
2021/01/12 06:12:47;;;;;;;;;;;11.60;72.20;;;;;;2082000;28;1313;-57
2021/01/12 06:14:09;;;;;;;;;;;11.60;72.10;;;;;;2086364;28;1178;-56
2021/01/12 06:15:29;;;;;;;;;;;11.60;72.20;;;;;;2077318;28;1953;-54
2021/01/12 06:16:48;;;;;;;;;;;11.50;72.10;;;;;;2077463;28;1442;-56
2021/01/12 06:18:10;;;;;;;;;;;11.50;72.10;;;;;;2072489;28;1310;-55
2021/01/12 06:19:30;;;;;;;;;;;11.50;72.30;;;;;;2083793;28;1210;-56
2021/01/12 06:20:56;;;;;;;;;;;11.50;72.20;;;;;;2089464;28;1147;-57
2021/01/12 06:22:15;;;;;;;;;;;11.50;72.30;;;;;;2089152;28;1312;-56
2021/01/12 06:23:39;;;;;;;;;;;11.50;73.10;;;;;;2087594;28;1267;-58
2021/01/12 06:24:59;;;;;;;;;;;11.50;73.10;;;;;;2096326;28;1386;-57
2021/01/12 06:26:18;;;;;;;;;;;11.50;72.50;;;;;;2091552;28;1090;-54
2021/01/12 06:27:38;;;;;;;;;;;11.50;72.30;;;;;;2080346;28;1273;-53
2021/01/12 06:28:57;;;;;;;;;;;11.50;72.50;;;;;;2072171;28;1290;-54
2021/01/12 06:30:17;;;;;;;;;;;11.50;74.90;;;;;;2077055;28;1528;-57
2021/01/12 06:31:45;;;;;;;;;;;11.50;75.60;;;;;;2084282;28;1353;-54
2021/01/12 06:33:05;;;;;;;;;;;11.60;76.10;;;;;;2080570;28;1229;-54
2021/01/12 06:34:24;;;;;;;;;;;11.60;77.50;;;;;;2085746;28;1261;-59
2021/01/12 06:35:45;;;;;;;;;;;11.60;78.40;;;;;;2079894;28;1402;-56
2021/01/12 06:37:04;;;;;;;;;;;11.60;78.50;;;;;;2073151;28;1335;-55
2021/01/12 06:38:24;;;;;;;;;;;11.60;78.50;;;;;;2065851;28;1344;-54
2021/01/12 06:39:53;;;;;;;;;;;11.60;79.20;;;;;;2076830;28;1440;-52
2021/01/12 06:41:12;;;;;;;;;;;11.60;79.30;;;;;;2080663;28;1167;-57
2021/01/12 06:42:31;;;;;;;;;;;11.60;78.70;;;;;;2074855;28;1441;-53
2021/01/12 06:43:50;;;;;;;;;;;11.60;79.20;;;;;;2085291;28;1412;-57
2021/01/12 06:45:10;;;;;;;;;;;11.50;79.00;;;;;;2080073;28;1349;-55
2021/01/12 06:46:29;;;;;;;;;;;11.60;79.30;;;;;;2083020;28;1370;-56
2021/01/12 06:47:48;;;;;;;;;;;11.50;79.60;;;;;;2080753;28;1333;-57
2021/01/12 06:49:08;;;;;;;;;;;11.50;79.00;;;;;;2078077;28;1406;-55
2021/01/12 06:50:27;;;;;;;;;;;11.50;78.90;;;;;;2083108;28;1425;-54
2021/01/12 06:51:53;;;;;;;;;;;11.50;78.90;;;;;;2093463;28;1312;-54
2021/01/12 06:53:13;;;;;;;;;;;11.50;78.90;;;;;;2082799;28;1383;-56
2021/01/12 06:54:34;;;;;;;;;;;11.50;78.70;;;;;;2085193;28;1322;-53
2021/01/12 06:56:03;;;;;;;;;;;11.50;79.20;;;;;;2089991;28;1012;-54
2021/01/12 06:57:23;;;;;;;;;;;11.50;78.60;;;;;;2080628;28;1516;-55
2021/01/12 06:58:45;;;;;;;;;;;11.50;78.70;;;;;;2086033;28;1575;-56
2021/01/12 07:00:05;;;;;;;;;;;11.50;79.20;;;;;;2092110;28;1507;-58
2021/01/12 07:01:24;;;;;;;;;;;11.50;78.70;;;;;;2089254;28;1520;-59
2021/01/12 07:02:43;;;;;;;;;;;11.40;78.50;;;;;;2078772;28;1319;-55
2021/01/12 07:04:03;;;;;;;;;;;11.50;78.50;;;;;;2085732;28;1237;-55
2021/01/12 07:05:23;;;;;;;;;;;11.40;78.60;;;;;;2082703;28;1228;-55
2021/01/12 07:06:42;;;;;;;;;;;11.40;78.40;;;;;;2095138;28;1255;-53
2021/01/12 07:08:04;;;;;;;;;;;11.40;78.30;;;;;;2080110;28;1233;-54
2021/01/12 07:09:24;;;;;;;;;;;11.40;78.50;;;;;;2080149;28;1661;-52
2021/01/12 07:10:44;;;;;;;;;;;11.40;78.10;;;;;;2075313;28;1032;-56
2021/01/12 07:12:06;;;;;;;;;;;11.40;78.20;;;;;;2077297;28;1073;-55
2021/01/12 07:13:34;;;;;;;;;;;11.40;78.30;;;;;;2085684;28;1314;-53
2021/01/12 07:14:53;;;;;;;;;;;11.40;78.10;;;;;;2082604;28;1902;-57
2021/01/12 07:16:14;;;;;;;;;;;11.40;78.20;;;;;;2085882;28;933;-56
2021/01/12 07:17:35;;;;;;;;;;;11.40;78.40;;;;;;2089393;28;1219;-58
2021/01/12 07:18:57;;;;;;;;;;;11.40;78.40;;;;;;2079830;28;1533;-54
2021/01/12 07:20:17;;;;;;;;;;;11.40;78.30;;;;;;2080183;28;1403;-54
2021/01/12 07:21:36;;;;;;;;;;;11.40;78.40;;;;;;2073259;28;1290;-54
2021/01/12 07:23:08;;;;;;;;;;;11.40;78.20;;;;;;2084564;28;1467;-54
2021/01/12 07:24:27;;;;;;;;;;;11.40;79.00;;;;;;2089778;28;1232;-55
2021/01/12 07:25:46;;;;;;;;;;;11.40;78.10;;;;;;2088876;28;1301;-56
2021/01/12 07:27:06;;;;;;;;;;;11.30;77.90;;;;;;2079488;28;1393;-54
2021/01/12 07:28:25;;;;;;;;;;;11.30;78.30;;;;;;2081130;28;1348;-57
2021/01/12 07:29:46;;;;;;;;;;;11.40;77.90;;;;;;2088284;28;1402;-55
2021/01/12 07:31:05;;;;;;;;;;;11.40;78.10;;;;;;2090702;28;1346;-57
2021/01/12 07:32:28;;;;;;;;;;;11.30;78.00;;;;;;2090943;28;1121;-58
2021/01/12 07:33:47;;;;;;;;;;;11.30;77.80;;;;;;2089334;28;1354;-53
2021/01/12 07:35:07;;;;;;;;;;;11.40;78.20;;;;;;2090146;28;1971;-53
2021/01/12 07:36:27;;;;;;;;;;;11.30;77.90;;;;;;2090475;28;1305;-54
2021/01/12 07:37:46;;;;;;;;;;;11.30;77.90;;;;;;2080249;28;1329;-56
2021/01/12 07:39:05;;;;;;;;;;;11.30;78.40;;;;;;2086575;28;1643;-56
2021/01/12 07:40:25;;;;;;;;;;;11.30;78.50;;;;;;2090699;28;1514;-57
2021/01/12 07:41:47;;;;;;;;;;;11.30;77.70;;;;;;2080351;28;1234;-58
2021/01/12 07:43:06;;;;;;;;;;;11.30;78.10;;;;;;2081704;28;1163;-56
2021/01/12 07:44:27;;;;;;;;;;;11.30;78.00;;;;;;2087333;28;1280;-54
2021/01/12 07:45:47;;;;;;;;;;;11.30;78.10;;;;;;2089302;28;1414;-53
2021/01/12 07:47:06;;;;;;;;;;;11.30;77.90;;;;;;2081611;28;1274;-53
2021/01/12 07:48:25;;;;;;;;;;;11.30;78.00;;;;;;2081551;28;1343;-56
2021/01/12 07:49:48;;;;;;;;;;;11.30;78.00;;;;;;2089223;28;1399;-57
2021/01/12 07:51:08;;;;;;;;;;;11.30;78.60;;;;;;2093402;28;1147;-58
2021/01/12 07:52:27;;;;;;;;;;;11.30;78.00;;;;;;2082081;28;1405;-58
2021/01/12 07:53:46;;;;;;;;;;;11.30;77.80;;;;;;2076977;28;1258;-56
2021/01/12 07:55:06;;;;;;;;;;;11.30;77.70;;;;;;2086275;28;1979;-55
2021/01/12 07:56:25;;;;;;;;;;;11.30;78.00;;;;;;2090833;28;1236;-56